Time;durP1;ratioP1;P1;durP2;ratioP2;P2;SDS_P1;SDS_P2;PMS_P1;PMS_P2;Temp;Humidity;BMP_temperature;BMP_pressure;BME280_temperature;BME280_humidity;BME280_pressure;Samples;Min_cycle;Max_cycle;Signal;HPM_P1;HPM_P2
2023/09/27 00:02:12;;;;;;;42.28;23.27;;;;;;;16.99;100.00;101131.88;4996987;28;20026;-81
2023/09/27 00:04:37;;;;;;;47.08;24.10;;;;;;;16.97;100.00;101137.38;4996954;28;20468;-82
2023/09/27 00:07:03;;;;;;;39.13;23.33;;;;;;;16.96;100.00;101145.25;4997015;28;20057;-82
2023/09/27 00:09:31;;;;;;;37.88;22.23;;;;;;;16.92;100.00;101141.81;4995459;28;20451;-82
2023/09/27 00:11:57;;;;;;;44.28;22.67;;;;;;;16.89;100.00;101142.88;4996915;28;20030;-82
2023/09/27 00:14:23;;;;;;;44.10;22.33;;;;;;;16.86;100.00;101143.09;4996728;28;20077;-81
2023/09/27 00:16:49;;;;;;;42.20;24.02;;;;;;;16.83;100.00;101144.13;4997054;28;20070;-82
2023/09/27 00:19:15;;;;;;;38.63;22.08;;;;;;;16.78;100.00;101144.88;4995833;28;20022;-82
2023/09/27 00:21:41;;;;;;;41.22;22.77;;;;;;;16.73;100.00;101139.88;4996737;28;20037;-81
2023/09/27 00:24:07;;;;;;;48.22;26.33;;;;;;;16.71;100.00;101139.59;4996917;28;20352;-82
2023/09/27 00:26:32;;;;;;;47.80;24.67;;;;;;;16.67;100.00;101134.06;4996651;28;20478;-80
2023/09/27 00:28:57;;;;;;;48.05;24.02;;;;;;;16.67;100.00;101139.03;4996708;28;20030;-81
2023/09/27 00:31:23;;;;;;;50.97;23.90;;;;;;;16.65;100.00;101139.56;4996530;28;20032;-83
2023/09/27 00:33:49;;;;;;;57.08;25.40;;;;;;;16.63;100.00;101135.59;4996305;28;20057;-82
2023/09/27 00:36:16;;;;;;;45.08;24.42;;;;;;;16.59;100.00;101138.75;4995120;28;20058;-82
2023/09/27 00:38:41;;;;;;;43.10;23.42;;;;;;;16.54;100.00;101133.72;4995025;28;20476;-82
2023/09/27 00:41:07;;;;;;;47.88;25.33;;;;;;;16.51;100.00;101126.84;4996470;28;20034;-81
2023/09/27 00:43:33;;;;;;;55.17;25.85;;;;;;;16.48;100.00;101139.44;4995993;28;20026;-82
2023/09/27 00:46:06;;;;;;;48.90;24.92;;;;;;;16.47;100.00;101131.28;4994738;28;20027;-82
2023/09/27 00:48:33;;;;;;;57.10;25.58;;;;;;;16.45;100.00;101133.91;4994693;28;20026;-81
2023/09/27 00:50:59;;;;;;;50.00;26.02;;;;;;;16.43;100.00;101130.72;4994811;28;20451;-81
2023/09/27 00:53:33;;;;;;;46.90;25.20;;;;;;;16.40;100.00;101129.66;4994691;28;20022;-81
2023/09/27 00:55:59;;;;;;;51.22;25.23;;;;;;;16.36;100.00;101126.22;4995855;28;20526;-81
2023/09/27 00:58:24;;;;;;;52.38;25.40;;;;;;;16.31;100.00;101132.72;4994795;28;20038;-81
2023/09/27 01:00:51;;;;;;;43.72;24.63;;;;;;;16.33;100.00;101123.56;4994783;28;20034;-81
2023/09/27 01:03:17;;;;;;;46.53;23.95;;;;;;;16.27;100.00;101123.53;4994593;28;20065;-82
2023/09/27 01:05:42;;;;;;;45.47;24.88;;;;;;;16.27;100.00;101131.38;4995949;28;20069;-81
2023/09/27 01:08:08;;;;;;;49.38;23.23;;;;;;;16.19;100.00;101115.88;4995804;28;20085;-82
2023/09/27 01:10:36;;;;;;;49.25;25.90;;;;;;;16.23;100.00;101125.88;4995354;28;20041;-82
2023/09/27 01:13:03;;;;;;;49.53;24.50;;;;;;;16.22;100.00;101135.81;4994467;28;20026;-81
2023/09/27 01:15:28;;;;;;;48.13;24.90;;;;;;;16.18;100.00;101126.59;4995736;28;20022;-82
2023/09/27 01:17:58;;;;;;;48.08;23.40;;;;;;;16.19;100.00;101133.97;4995814;28;20384;-82
2023/09/27 01:20:25;;;;;;;44.05;23.38;;;;;;;16.16;100.00;101120.56;4994293;28;20506;-80
2023/09/27 01:23:00;;;;;;;47.22;24.25;;;;;;;16.17;100.00;101121.34;4994104;28;20030;-78
2023/09/27 01:25:30;;;;;;;47.03;24.10;;;;;;;16.14;100.00;101120.28;4995429;28;20026;-77
2023/09/27 01:27:58;;;;;;;47.55;23.48;;;;;;;16.12;100.00;101115.03;4994124;28;20109;-80
2023/09/27 01:30:25;;;;;;;49.80;24.67;;;;;;;16.12;100.00;101123.69;4996337;28;20026;-83
2023/09/27 01:32:51;;;;;;;43.05;23.83;;;;;;;16.08;100.00;101117.34;4996941;28;20057;-81
2023/09/27 01:35:16;;;;;;;43.72;23.73;;;;;;;16.10;100.00;101122.63;5013382;28;20030;-81
2023/09/27 01:37:42;;;;;;;49.30;23.70;;;;;;;16.05;100.00;101118.41;5008732;28;20031;-82
2023/09/27 01:40:10;;;;;;;53.65;24.45;;;;;;;16.05;100.00;101121.28;4995552;28;20023;-81
2023/09/27 01:42:42;;;;;;;48.85;23.33;;;;;;;16.02;100.00;101119.41;4994975;28;20471;-81
2023/09/27 01:45:08;;;;;;;43.22;23.33;;;;;;;15.93;100.00;101108.06;4995299;28;20054;-81
2023/09/27 01:47:33;;;;;;;40.75;22.75;;;;;;;15.99;100.00;101119.63;4993653;28;20464;-82
2023/09/27 01:49:59;;;;;;;41.85;22.63;;;;;;;15.96;100.00;101109.91;4994103;28;20061;-82
2023/09/27 01:52:24;;;;;;;44.50;22.90;;;;;;;15.97;100.00;101119.34;4999466;28;20034;-82
2023/09/27 01:54:50;;;;;;;36.13;21.33;;;;;;;15.95;100.00;101117.00;5004980;28;20034;-81
2023/09/27 01:57:15;;;;;;;44.17;21.90;;;;;;;15.94;100.00;101115.41;4999877;28;20408;-82
2023/09/27 01:59:40;;;;;;;39.60;19.30;;;;;;;15.92;100.00;101120.88;4995463;28;20029;-82
2023/09/27 02:02:06;;;;;;;38.42;19.85;;;;;;;15.88;100.00;101111.69;4995669;28;20408;-81
2023/09/27 02:04:31;;;;;;;63.53;21.17;;;;;;;15.87;100.00;101112.19;4995117;28;20130;-80
2023/09/27 02:06:57;;;;;;;41.15;20.77;;;;;;;15.84;100.00;101118.97;4994888;28;20030;-81
2023/09/27 02:09:22;;;;;;;54.90;22.17;;;;;;;15.81;100.00;101117.13;4977003;28;20117;-82
2023/09/27 02:11:48;;;;;;;34.72;19.10;;;;;;;15.79;100.00;101117.63;4994485;28;20065;-81
2023/09/27 02:14:13;;;;;;;48.95;21.77;;;;;;;15.77;100.00;101122.31;4994403;28;20029;-82
2023/09/27 02:16:41;;;;;;;41.00;21.60;;;;;;;15.74;100.00;101112.59;4994546;28;20034;-81
2023/09/27 02:19:06;;;;;;;43.50;22.23;;;;;;;15.73;100.00;101121.75;4994949;28;20018;-81
2023/09/27 02:21:32;;;;;;;40.80;21.50;;;;;;;15.66;100.00;101117.25;4994301;28;20482;-81
2023/09/27 02:23:57;;;;;;;43.42;22.10;;;;;;;15.68;100.00;101118.31;4993522;28;20031;-82
2023/09/27 02:26:23;;;;;;;39.85;20.52;;;;;;;15.65;100.00;101124.31;4994728;28;20019;-82
2023/09/27 02:28:48;;;;;;;48.17;20.45;;;;;;;15.63;100.00;101118.25;4994465;28;20084;-81
2023/09/27 02:31:14;;;;;;;49.35;21.35;;;;;;;15.66;100.00;101128.78;4994227;28;20030;-81
2023/09/27 02:33:39;;;;;;;42.05;21.13;;;;;;;15.67;100.00;101122.47;4994429;28;20082;-81
2023/09/27 02:36:05;;;;;;;40.42;22.42;;;;;;;15.62;100.00;101128.19;4994499;28;20416;-82
2023/09/27 02:38:30;;;;;;;39.97;21.40;;;;;;;15.54;100.00;101121.28;4994006;28;20026;-81
2023/09/27 02:40:55;;;;;;;50.47;20.88;;;;;;;15.58;100.00;101121.84;4995986;28;20057;-81
2023/09/27 02:43:21;;;;;;;45.20;22.13;;;;;;;15.53;100.00;101116.81;4995459;28;20032;-80
2023/09/27 02:45:46;;;;;;;45.35;22.88;;;;;;;15.53;100.00;101126.25;4994467;28;20027;-80
2023/09/27 02:48:12;;;;;;;52.53;22.88;;;;;;;15.50;100.00;101123.59;4994473;28;20022;-81
2023/09/27 02:50:37;;;;;;;37.70;20.70;;;;;;;15.46;100.00;101123.81;4992677;28;20054;-82
2023/09/27 02:53:03;;;;;;;38.47;21.23;;;;;;;15.42;100.00;101125.31;4994619;28;20106;-81
2023/09/27 02:55:29;;;;;;;45.20;21.13;;;;;;;15.42;100.00;101128.19;4994260;28;20027;-80
2023/09/27 02:57:54;;;;;;;37.33;21.02;;;;;;;15.40;100.00;101131.59;4994200;28;20033;-81
2023/09/27 03:00:19;;;;;;;41.42;21.73;;;;;;;15.40;100.00;101133.69;4994427;28;20104;-81
2023/09/27 03:02:45;;;;;;;38.05;22.23;;;;;;;15.39;100.00;101140.75;4994156;28;20486;-80
2023/09/27 03:05:11;;;;;;;42.22;22.38;;;;;;;15.35;100.00;101123.69;4992836;28;20037;-82
2023/09/27 03:07:38;;;;;;;41.25;22.15;;;;;;;15.35;100.00;101123.69;4993937;28;20109;-82
2023/09/27 03:10:12;;;;;;;44.85;22.52;;;;;;;15.35;100.00;101128.66;4993131;28;20050;-82
2023/09/27 03:12:39;;;;;;;48.17;24.65;;;;;;;15.38;100.00;101130.50;4993415;28;20411;-82
2023/09/27 03:15:10;;;;;;;44.85;23.70;;;;;;;15.38;100.00;101121.88;4993076;28;20037;-83
2023/09/27 03:17:35;;;;;;;51.35;24.30;;;;;;;15.37;100.00;101129.72;4994290;28;20128;-83
2023/09/27 03:20:01;;;;;;;59.42;25.52;;;;;;;15.36;100.00;101115.84;4992649;28;20456;-83
2023/09/27 03:22:26;;;;;;;50.45;23.38;;;;;;;15.41;100.00;101130.31;4992513;28;20053;-83
2023/09/27 03:24:51;;;;;;;75.82;25.55;;;;;;;15.42;100.00;101134.75;4994060;28;20403;-82
2023/09/27 03:27:17;;;;;;;62.20;23.58;;;;;;;15.44;100.00;101137.13;4992390;28;20369;-80
2023/09/27 03:29:42;;;;;;;59.63;23.42;;;;;;;15.44;100.00;101128.50;4993810;28;20031;-82
2023/09/27 03:32:08;;;;;;;52.58;22.85;;;;;;;15.45;100.00;101128.00;4993790;28;20463;-81
2023/09/27 03:34:33;;;;;;;51.95;22.00;;;;;;;15.44;100.00;101117.75;4993913;28;20487;-83
2023/09/27 03:36:59;;;;;;;43.50;23.17;;;;;;;15.46;100.00;101125.91;4993712;28;20146;-81
2023/09/27 03:39:25;;;;;;;43.90;23.15;;;;;;;15.45;100.00;101124.31;4994054;28;20042;-83
2023/09/27 03:41:50;;;;;;;45.25;22.17;;;;;;;15.43;100.00;101129.78;4992863;28;20038;-82
2023/09/27 03:44:16;;;;;;;41.60;22.63;;;;;;;15.40;100.00;101128.72;4993644;28;20161;-82
2023/09/27 03:46:41;;;;;;;56.95;23.92;;;;;;;15.38;100.00;101131.31;4993366;28;20522;-81
2023/09/27 03:49:07;;;;;;;38.35;22.20;;;;;;;15.37;100.00;101126.03;4993373;28;20495;-82
2023/09/27 03:51:32;;;;;;;43.92;22.60;;;;;;;15.34;100.00;101132.81;4993404;28;20026;-82
2023/09/27 03:53:58;;;;;;;44.22;22.10;;;;;;;15.28;100.00;101127.78;4996021;28;20435;-83
2023/09/27 03:56:23;;;;;;;39.80;21.25;;;;;;;15.28;100.00;101132.75;4996975;28;20030;-82
2023/09/27 03:58:49;;;;;;;37.25;20.25;;;;;;;15.25;100.00;101131.69;4997165;28;20026;-83
2023/09/27 04:01:15;;;;;;;36.60;21.27;;;;;;;15.17;100.00;101127.66;4995709;28;20034;-81
2023/09/27 04:03:41;;;;;;;38.10;21.80;;;;;;;15.20;100.00;101132.41;4996939;28;20085;-81
2023/09/27 04:06:06;;;;;;;41.35;21.83;;;;;;;15.20;100.00;101125.88;4996931;28;20026;-81
2023/09/27 04:08:33;;;;;;;37.03;21.27;;;;;;;15.20;100.00;101120.91;4996719;28;20053;-82
2023/09/27 04:10:59;;;;;;;39.90;21.48;;;;;;;15.11;100.00;101120.25;4996681;28;20034;-82
2023/09/27 04:13:24;;;;;;;41.00;21.20;;;;;;;15.14;100.00;101130.75;4996830;28;20026;-81
2023/09/27 04:15:50;;;;;;;38.63;21.05;;;;;;;15.13;100.00;101132.84;4997107;28;20046;-82
2023/09/27 04:18:15;;;;;;;40.30;22.48;;;;;;;15.11;100.00;101134.66;4996372;28;20070;-81
2023/09/27 04:20:41;;;;;;;39.88;22.67;;;;;;;15.06;100.00;101130.41;4994135;28;20061;-80
2023/09/27 04:23:06;;;;;;;38.13;22.52;;;;;;;15.07;100.00;101131.97;4994649;28;20026;-81
2023/09/27 04:25:31;;;;;;;39.60;22.00;;;;;;;15.04;100.00;101123.56;4994493;28;20026;-84
2023/09/27 04:27:57;;;;;;;46.20;22.73;;;;;;;15.06;100.00;101129.63;4993315;28;20058;-81
2023/09/27 04:30:22;;;;;;;41.15;23.40;;;;;;;15.06;100.00;101126.75;4995222;28;20116;-82
2023/09/27 04:32:52;;;;;;;39.63;22.15;;;;;;;15.06;100.00;101139.06;4996852;28;20112;-83
2023/09/27 04:35:19;;;;;;;39.15;22.17;;;;;;;15.03;100.00;101131.41;4995463;28;20037;-81
2023/09/27 04:37:45;;;;;;;40.28;22.88;;;;;;;15.00;100.00;101128.75;4994708;28;20196;-81
2023/09/27 04:40:14;;;;;;;40.28;23.13;;;;;;;15.04;100.00;101135.88;4996282;28;20113;-84
2023/09/27 04:42:41;;;;;;;37.05;22.50;;;;;;;15.01;100.00;101128.25;4996623;28;20105;-83
2023/09/27 04:45:07;;;;;;;34.28;20.77;;;;;;;15.02;100.00;101138.47;4996163;28;20045;-84
2023/09/27 04:47:32;;;;;;;34.70;21.27;;;;;;;15.01;100.00;101139.78;4995391;28;20037;-84
2023/09/27 04:49:58;;;;;;;36.80;21.67;;;;;;;15.01;100.00;101142.66;4995283;28;20041;-84
2023/09/27 04:52:24;;;;;;;37.10;20.92;;;;;;;14.99;100.00;101142.34;4996556;28;20026;-83
2023/09/27 04:54:57;;;;;;;38.80;22.00;;;;;;;15.02;100.00;101143.44;4996191;28;20069;-86
2023/09/27 04:57:23;;;;;;;36.30;21.23;;;;;;;15.02;100.00;101149.19;4996111;28;20091;-82
2023/09/27 04:59:50;;;;;;;35.42;21.17;;;;;;;15.03;100.00;101142.91;4995956;28;20026;-83
2023/09/27 05:02:16;;;;;;;33.33;20.95;;;;;;;15.02;100.00;101147.09;4978645;28;20034;-82
2023/09/27 05:04:41;;;;;;;36.83;20.25;;;;;;;15.05;100.00;101151.84;4995533;28;20033;-83
2023/09/27 05:07:07;;;;;;;36.38;19.95;;;;;;;15.07;100.00;101154.25;4996348;28;20419;-81
2023/09/27 05:09:32;;;;;;;35.05;21.42;;;;;;;15.05;100.00;101148.19;4995680;28;20054;-83
2023/09/27 05:11:58;;;;;;;34.20;20.92;;;;;;;15.07;100.00;101155.00;4995691;28;20034;-78
2023/09/27 05:14:23;;;;;;;34.38;20.08;;;;;;;15.08;100.00;101155.81;4995871;28;20027;-86
2023/09/27 05:16:49;;;;;;;29.58;20.17;;;;;;;15.10;100.00;101159.78;4995736;28;20076;-79
2023/09/27 05:19:14;;;;;;;32.25;19.85;;;;;;;15.13;100.00;101161.63;4995774;28;20022;-83
2023/09/27 05:21:40;;;;;;;32.90;19.60;;;;;;;15.16;100.00;101148.34;4995671;28;20464;-83
2023/09/27 05:24:06;;;;;;;32.55;19.77;;;;;;;15.18;100.00;101157.25;4995953;28;20034;-83
2023/09/27 05:26:31;;;;;;;31.83;18.33;;;;;;;15.20;100.00;101155.47;4994220;28;20026;-81
2023/09/27 05:28:56;;;;;;;33.00;19.33;;;;;;;15.28;100.00;101161.56;4995614;28;20339;-85
2023/09/27 05:31:22;;;;;;;33.15;19.27;;;;;;;15.33;100.00;101162.91;4994414;28;20057;-82
2023/09/27 05:33:48;;;;;;;30.00;19.50;;;;;;;15.37;100.00;101161.41;4995693;28;20027;-81
2023/09/27 05:36:13;;;;;;;33.28;19.52;;;;;;;15.41;100.00;101161.19;5009959;28;20455;-73
2023/09/27 05:38:39;;;;;;;29.05;17.80;;;;;;;15.48;100.00;101170.19;5012934;28;20125;-71
2023/09/27 05:41:04;;;;;;;32.20;18.35;;;;;;;15.59;100.00;101175.31;5015178;28;20033;-73
2023/09/27 05:43:30;;;;;;;25.75;18.27;;;;;;;15.69;100.00;101174.66;5015549;28;20034;-72
2023/09/27 05:45:57;;;;;;;22.95;17.08;;;;;;;15.82;100.00;101184.97;5014965;28;20050;-72
2023/09/27 05:48:22;;;;;;;31.15;19.45;;;;;;;15.96;100.00;101178.31;5014925;28;20026;-71
2023/09/27 05:50:48;;;;;;;27.15;18.33;;;;;;;16.18;100.00;101177.72;5015543;28;20084;-76
2023/09/27 05:53:16;;;;;;;27.42;16.45;;;;;;;16.61;100.00;101178.63;5018663;28;20088;-76
2023/09/27 05:55:42;;;;;;;25.90;17.00;;;;;;;17.33;100.00;101173.25;5001391;28;20032;-74
2023/09/27 05:58:07;;;;;;;26.38;16.23;;;;;;;18.36;100.00;101165.88;5015439;28;20034;-76
2023/09/27 06:00:38;;;;;;;19.48;14.32;;;;;;;19.41;100.00;101164.84;5014845;28;20090;-76
2023/09/27 06:03:08;;;;;;;22.15;14.82;;;;;;;20.38;100.00;101144.94;4997512;28;20474;-73
2023/09/27 06:05:34;;;;;;;19.52;13.35;;;;;;;21.24;100.00;101137.13;5014798;28;20044;-74
2023/09/27 06:07:59;;;;;;;21.50;13.48;;;;;;;22.18;100.00;101133.44;5014070;28;20026;-74
2023/09/27 06:10:25;;;;;;;18.73;12.55;;;;;;;23.05;100.00;101117.00;5014025;28;20025;-75
2023/09/27 06:12:50;;;;;;;21.13;13.63;;;;;;;23.29;100.00;101120.47;5012533;28;20038;-73
2023/09/27 06:15:17;;;;;;;21.25;12.82;;;;;;;23.40;100.00;101122.34;5013804;28;20395;-73
2023/09/27 06:17:43;;;;;;;16.85;11.90;;;;;;;23.95;100.00;101123.19;5012989;28;20026;-73
2023/09/27 06:20:19;;;;;;;19.00;11.70;;;;;;;24.77;100.00;101117.91;5014095;28;20018;-74
2023/09/27 06:22:48;;;;;;;18.23;10.90;;;;;;;25.66;100.00;101118.25;5012507;28;20391;-75
2023/09/27 06:25:14;;;;;;;17.58;10.95;;;;;;;26.42;100.00;101119.19;5013567;28;20026;-75
2023/09/27 06:27:40;;;;;;;13.85;10.57;;;;;;;27.01;100.00;101113.09;5013633;28;20080;-73
2023/09/27 06:30:07;;;;;;;14.60;9.80;;;;;;;27.60;100.00;101108.41;5013712;28;20025;-73
2023/09/27 06:32:35;;;;;;;17.98;10.55;;;;;;;28.28;100.00;101118.22;5012187;28;20030;-74
2023/09/27 06:35:00;;;;;;;19.20;11.35;;;;;;;28.73;100.00;101108.25;5013552;28;20439;-76
2023/09/27 06:37:27;;;;;;;14.77;10.00;;;;;;;29.18;100.00;101109.94;5013435;28;20033;-75
2023/09/27 06:39:53;;;;;;;11.98;9.77;;;;;;;29.57;100.00;101105.97;5012239;28;20075;-75
2023/09/27 06:42:19;;;;;;;15.02;9.95;;;;;;;30.00;100.00;101109.47;5013734;28;20033;-76
2023/09/27 06:44:44;;;;;;;14.40;9.20;;;;;;;30.46;100.00;101118.41;5013579;28;20412;-76
2023/09/27 06:47:10;;;;;;;16.45;9.98;;;;;;;30.89;100.00;101122.59;5013634;28;20029;-76
2023/09/27 06:49:35;;;;;;;13.10;8.65;;;;;;;31.30;100.00;101127.31;5013134;28;20026;-78
2023/09/27 06:52:00;;;;;;;13.40;9.13;;;;;;;31.69;100.00;101127.34;5013426;28;20034;-76
2023/09/27 06:54:26;;;;;;;13.52;8.55;;;;;;;31.83;100.00;101125.44;5012342;28;20112;-74
2023/09/27 06:56:51;;;;;;;25.17;10.38;;;;;;;31.73;100.00;101121.72;5012302;28;20057;-74
2023/09/27 06:59:17;;;;;;;18.48;9.75;;;;;;;31.57;100.00;101127.16;5013277;28;20128;-74
2023/09/27 07:01:42;;;;;;;14.30;9.45;;;;;;;31.41;100.00;101125.91;5013191;28;20034;-75
2023/09/27 07:04:08;;;;;;;17.17;9.70;;;;;;;31.17;100.00;101127.78;5013290;28;20041;-75
2023/09/27 07:06:34;;;;;;;19.10;10.10;;;;;;;31.05;100.00;101140.81;5013286;28;20025;-75
2023/09/27 07:08:59;;;;;;;16.95;11.05;;;;;;;30.98;100.00;101128.50;5012792;28;20053;-76
2023/09/27 07:11:25;;;;;;;15.00;9.85;;;;;;;31.04;100.00;101134.13;5013336;28;20034;-75
2023/09/27 07:13:50;;;;;;;17.83;10.45;;;;;;;31.15;100.00;101138.63;5011720;28;20112;-75
2023/09/27 07:16:26;;;;;;;16.88;9.85;;;;;;;31.11;100.00;101150.91;5013401;28;20030;-75
2023/09/27 07:18:55;;;;;;;20.90;10.70;;;;;;;30.89;100.00;101146.22;5013254;28;20522;-77
2023/09/27 07:21:24;;;;;;;17.63;10.95;;;;;;;30.66;100.00;101152.53;5011652;28;20125;-78
2023/09/27 07:23:51;;;;;;;21.27;10.50;;;;;;;30.41;100.00;101146.81;5013276;28;20092;-76
2023/09/27 07:26:16;;;;;;;14.82;10.30;;;;;;;30.13;100.00;101147.44;5013025;28;20368;-76
2023/09/27 07:28:42;;;;;;;24.13;11.07;;;;;;;29.95;100.00;101154.75;5014277;28;20041;-78
2023/09/27 07:31:08;;;;;;;13.70;11.00;;;;;;;29.85;100.00;101153.91;5016990;28;20533;-77
2023/09/27 07:33:33;;;;;;;21.17;10.05;;;;;;;29.68;100.00;101142.91;5016280;28;20029;-77
2023/09/27 07:35:59;;;;;;;20.45;10.93;;;;;;;29.66;100.00;101145.72;5014882;28;20073;-76
2023/09/27 07:38:26;;;;;;;13.50;10.32;;;;;;;29.75;100.00;101145.00;5014843;28;20022;-76
2023/09/27 07:40:51;;;;;;;17.20;9.43;;;;;;;29.87;100.00;101148.97;5014778;28;20033;-75
2023/09/27 07:43:16;;;;;;;17.58;9.80;;;;;;;30.03;100.00;101149.50;5014789;28;20033;-77
2023/09/27 07:45:42;;;;;;;15.60;10.68;;;;;;;30.16;100.00;101152.13;5014559;28;20036;-77
2023/09/27 07:48:08;;;;;;;13.77;9.50;;;;;;;30.18;100.00;101149.31;5013055;28;20044;-75
2023/09/27 07:50:37;;;;;;;14.73;8.98;;;;;;;30.22;100.00;101148.88;5014661;28;20026;-75
2023/09/27 07:53:03;;;;;;;12.07;8.27;;;;;;;30.28;100.00;101152.31;5014862;28;20034;-79
2023/09/27 07:55:32;;;;;;;10.00;7.63;;;;;;;30.25;100.00;101150.59;5014700;28;20025;-77
2023/09/27 07:57:58;;;;;;;10.98;7.78;;;;;;;30.05;100.00;101150.47;5014275;28;20026;-77
2023/09/27 08:00:31;;;;;;;13.93;8.20;;;;;;;30.01;100.00;101155.25;5014561;28;20017;-77
2023/09/27 08:03:00;;;;;;;12.38;8.75;;;;;;;30.10;100.00;101143.53;5013010;28;20029;-79
2023/09/27 08:05:25;;;;;;;10.65;7.63;;;;;;;30.27;100.00;101150.78;5015187;28;20068;-75
2023/09/27 08:07:51;;;;;;;9.52;7.38;;;;;;;30.41;100.00;101155.66;5014999;28;20057;-76
2023/09/27 08:10:18;;;;;;;16.30;7.63;;;;;;;30.51;100.00;101159.41;5016438;28;20541;-78
2023/09/27 08:12:44;;;;;;;13.13;7.25;;;;;;;30.56;100.00;101158.34;5013619;28;20463;-77
2023/09/27 08:15:12;;;;;;;12.25;6.85;;;;;;;30.46;100.00;101154.59;5014621;28;20028;-78
2023/09/27 08:17:38;;;;;;;14.13;6.75;;;;;;;30.37;100.00;101154.53;5016670;28;20033;-77
2023/09/27 08:20:05;;;;;;;11.18;6.88;;;;;;;30.44;100.00;101162.50;5016613;28;20547;-80
2023/09/27 08:22:34;;;;;;;26.10;7.30;;;;;;;30.52;100.00;101160.97;5016285;28;20402;-79
2023/09/27 08:25:00;;;;;;;16.60;6.88;;;;;;;30.48;100.00;101160.63;5015103;28;20056;-79
2023/09/27 08:27:26;;;;;;;9.63;6.43;;;;;;;30.53;100.00;101158.78;5016679;28;20022;-79
2023/09/27 08:29:52;;;;;;;14.10;7.25;;;;;;;30.45;100.00;101155.19;5016077;28;20032;-79
2023/09/27 08:32:17;;;;;;;18.17;6.47;;;;;;;30.28;100.00;101159.00;5015804;28;20029;-80
2023/09/27 08:34:43;;;;;;;7.55;6.25;;;;;;;30.19;100.00;101153.81;5017095;28;20383;-81
2023/09/27 08:37:11;;;;;;;14.18;6.57;;;;;;;30.14;100.00;101155.66;5016835;28;20018;-77
2023/09/27 08:39:37;;;;;;;15.57;6.45;;;;;;;30.14;100.00;101163.72;5015061;28;20026;-76
2023/09/27 08:42:03;;;;;;;12.35;6.22;;;;;;;30.24;100.00;101161.63;5015653;28;20112;-78
2023/09/27 08:44:29;;;;;;;8.20;6.38;;;;;;;30.26;100.00;101158.06;5014738;28;20049;-78
2023/09/27 08:46:55;;;;;;;11.63;6.00;;;;;;;30.26;100.00;101161.78;5014149;28;20022;-77
2023/09/27 08:49:20;;;;;;;8.60;6.10;;;;;;;30.24;100.00;101160.84;5015466;28;20071;-76
2023/09/27 08:51:46;;;;;;;12.32;5.68;;;;;;;30.17;100.00;101152.91;5015649;28;20026;-78
2023/09/27 08:54:16;;;;;;;9.52;5.50;;;;;;;30.01;100.00;101150.16;5014487;28;20029;-78
2023/09/27 08:56:46;;;;;;;12.02;5.55;;;;;;;29.82;100.00;101152.19;5015833;28;20121;-79
2023/09/27 08:59:11;;;;;;;13.30;6.88;;;;;;;29.68;100.00;101151.75;5014133;28;20021;-77
2023/09/27 09:01:38;;;;;;;25.58;6.10;;;;;;;29.54;100.00;101154.28;4981781;28;20433;-81
2023/09/27 09:04:04;;;;;;;14.68;5.68;;;;;;;29.39;100.00;101162.50;4998614;28;20026;-76
2023/09/27 09:06:30;;;;;;;14.65;6.55;;;;;;;29.21;100.00;101164.69;5013581;28;20174;-78
2023/09/27 09:08:55;;;;;;;8.88;5.18;;;;;;;28.99;100.00;101159.75;5013532;28;20064;-80
2023/09/27 09:11:22;;;;;;;12.88;5.80;;;;;;;28.83;100.00;101159.16;5013242;28;20060;-77
2023/09/27 09:13:59;;;;;;;8.40;5.47;;;;;;;28.73;100.00;101153.16;5012853;28;20040;-77
2023/09/27 09:16:25;;;;;;;14.85;6.18;;;;;;;28.65;100.00;101155.38;5011756;28;20037;-74
2023/09/27 09:18:52;;;;;;;10.90;5.95;;;;;;;28.70;100.00;101150.63;5012761;28;20030;-77
2023/09/27 09:21:20;;;;;;;9.20;5.85;;;;;;;28.73;100.00;101143.53;5012653;28;20382;-78
2023/09/27 09:23:49;;;;;;;13.38;5.88;;;;;;;28.77;100.00;101144.69;5011195;28;20088;-77
2023/09/27 09:26:28;;;;;;;11.32;5.88;;;;;;;28.81;100.00;101147.19;5012380;28;20022;-77
2023/09/27 09:28:56;;;;;;;11.68;4.93;;;;;;;28.81;100.00;101147.19;5012993;28;20440;-79
2023/09/27 09:31:25;;;;;;;12.95;6.15;;;;;;;28.77;100.00;101129.97;5012402;28;20044;-77
2023/09/27 09:34:04;;;;;;;11.18;5.45;;;;;;;28.72;100.00;101139.81;5012561;28;20040;-77
2023/09/27 09:36:30;;;;;;;12.82;5.25;;;;;;;28.74;100.00;101148.03;5013261;28;20113;-77
2023/09/27 09:39:16;;;;;;;7.25;5.63;;;;;;;28.72;100.00;101136.09;5011961;28;20530;-75
2023/09/27 09:41:49;;;;;;;10.40;6.05;;;;;;;28.68;100.00;101129.88;5012991;28;20573;-80
2023/09/27 09:44:24;;;;;;;9.15;5.35;;;;;;;28.73;100.00;101144.34;5011898;28;20025;-76
2023/09/27 09:46:53;;;;;;;8.32;5.40;;;;;;;28.75;100.00;101135.66;5014504;28;20025;-75
2023/09/27 09:49:19;;;;;;;12.80;5.53;;;;;;;28.78;100.00;101134.47;5014032;28;20041;-78
2023/09/27 09:51:48;;;;;;;15.35;5.55;;;;;;;28.82;100.00;101134.03;5012849;28;20029;-76
2023/09/27 09:54:49;;;;;;;12.05;5.43;;;;;;;28.78;98.78;101134.47;5014429;28;20045;-77
2023/09/27 09:57:15;;;;;;;18.13;5.17;;;;;;;28.60;100.00;101120.31;4918804;29;20031;-75
2023/09/27 10:00:12;;;;;;;7.90;5.60;;;;;;;28.59;100.00;101128.34;4980370;28;20475;-75
2023/09/27 10:03:07;;;;;;;9.35;4.90;;;;;;;28.51;100.00;101127.66;5014165;28;20032;-78
2023/09/27 10:05:39;;;;;;;11.27;4.97;;;;;;;28.42;100.00;101125.34;5014078;28;20042;-76
2023/09/27 10:08:05;;;;;;;10.57;5.13;;;;;;;28.36;99.78;101113.03;5012409;28;20471;-77
2023/09/27 10:10:31;;;;;;;7.80;4.40;;;;;;;28.28;100.00;101124.88;4996291;28;20033;-76
2023/09/27 10:12:57;;;;;;;8.55;4.53;;;;;;;28.32;100.00;101112.69;4996316;28;20357;-78
2023/09/27 10:15:23;;;;;;;10.63;4.78;;;;;;;28.34;100.00;101115.81;5013995;28;20032;-75
2023/09/27 10:17:49;;;;;;;8.40;5.00;;;;;;;28.39;100.00;101118.50;5012493;28;20034;-75
2023/09/27 10:20:17;;;;;;;13.48;5.25;;;;;;;28.42;99.19;101120.25;4995760;28;20026;-76
2023/09/27 10:22:47;;;;;;;16.67;5.30;;;;;;;28.41;94.82;101115.75;5012123;28;20545;-76
2023/09/27 10:25:27;;;;;;;12.40;4.53;;;;;;;28.39;95.18;101111.84;5013127;28;20030;-76
2023/09/27 10:27:58;;;;;;;11.17;4.70;;;;;;;28.38;95.40;101107.34;5013620;28;20038;-76
2023/09/27 10:30:24;;;;;;;;;;;;;;;28.34;94.06;101098.91;5013888;28;20462;-75
2023/09/27 10:33:15;;;;;;;12.27;5.25;;;;;;;28.39;93.17;101109.66;5013464;28;19953;-76
2023/09/27 10:35:45;;;;;;;11.77;4.60;;;;;;;28.41;92.80;101095.16;5014078;28;20054;-79
2023/09/27 10:38:10;;;;;;;12.32;4.65;;;;;;;28.45;91.12;101085.91;4997171;28;20029;-75
2023/09/27 10:40:43;;;;;;;9.70;4.82;;;;;;;28.42;90.81;101087.91;5013490;28;20025;-75
2023/09/27 10:43:09;;;;;;;9.93;4.85;;;;;;;28.37;92.22;101083.03;5013818;28;20044;-76
2023/09/27 10:45:35;;;;;;;12.98;4.82;;;;;;;28.25;93.64;101075.28;5012116;28;20029;-75
2023/09/27 10:48:18;;;;;;;10.50;4.80;;;;;;;28.16;90.26;101085.56;5012919;28;20075;-77
2023/09/27 10:50:52;;;;;;;13.52;4.57;;;;;;;28.06;90.27;101075.81;5013372;28;20057;-78
2023/09/27 10:53:18;;;;;;;11.40;5.28;;;;;;;27.91;90.06;101076.72;5012114;28;20034;-76
2023/09/27 10:55:44;;;;;;;11.93;5.05;;;;;;;27.83;91.71;101075.97;5013096;28;20036;-77
2023/09/27 10:58:16;;;;;;;11.23;4.80;;;;;;;27.74;91.08;101069.97;5011565;28;20036;-76
2023/09/27 11:00:54;;;;;;;8.57;4.53;;;;;;;27.65;90.61;101068.44;5013781;28;20037;-79
2023/09/27 11:03:20;;;;;;;12.50;4.50;;;;;;;27.53;94.16;101052.66;5013171;28;20364;-80
2023/09/27 11:05:45;;;;;;;16.60;4.88;;;;;;;27.50;94.23;101059.72;5013176;28;20517;-76
2023/09/27 11:08:12;;;;;;;5.60;3.92;;;;;;;27.41;93.82;101058.19;5012163;28;20418;-78